Avioradar koristi kolačiće da bi Vam omogućio jednostavnije i ugodnije korištenje stranice. 

AVIORADAR - Hrvatski zrakoplovni portal

METAR i TAF za zračne luke u Hrvatskoj

[Source: ADDS]
METAR
LDZA 201600Z 07005KT 350V140 CAVOK 31/15 Q1014 NOSIG =
LDSP 201600Z 32005KT 290V360 9999 FEW060 32/13 Q1011 BECMG 05006KT =
LDDU 201600Z 29010KT 260V320 9999 VCTS FEW040CB FEW045 30/15 Q1012 TEMPO TS =
LDPL 201600Z 26009KT 9999 FEW040 32/15 Q1013 NOSIG =
LDZD 201600Z VRB01KT 9999 FEW030 SCT050 30/15 Q1012 NOSIG =
LDRI 201600Z 07007KT 040V110 CAVOK 33/14 Q1013 =
LDOS 201600Z 34005KT 290V070 CAVOK 32/15 Q1014 =
TAF
LDZA 201125Z 2012/2112 05006KT 9999 SCT045 TX32/2012Z TN17/2103Z =
LDSP 201125Z 2012/2112 23011KT 9999 FEW060 TX35/2012Z TN25/2103Z PROB30 TEMPO 2013/2016 05015G25KT -TSRA FEW050CB BECMG 2016/2018 03005KT =
LDDU 201125Z 2012/2112 02010KT 9999 FEW045 TX30/2012Z TN24/2103Z BECMG 2012/2014 32008KT PROB40 TEMPO 2012/2016 02015G28KT -TSRA FEW040CB BECMG 2017/2019 02015KT =
LDPL 201125Z 2012/2112 09010KT CAVOK TX34/2013Z TN24/2103Z TEMPO 2018/2106 09005KT =
LDZD 201125Z 2012/2112 08008KT CAVOK TX35/2013Z TN23/2103Z PROB30 TEMPO 2012/2016 22008KT TSRA FEW040CB =
LDRI 201125Z 2012/2112 12008KT CAVOK TX34/2012Z TN24/2103Z TEMPO 2018/2112 VRB02KT =
LDOS 201125Z 2012/2112 10006KT 9999 SCT040 TX33/2013Z TN17/2103Z =
SR / SS: 04:02 / 17:55 UTC (Zagreb 2018-08-20)